sensor_id;sensor_type;location;lat;lon;timestamp;temperature;humidity
25732;DHT22;13585;50.864;4.406;2022-12-07T00:01:15;16.30;66.10
25732;DHT22;13585;50.864;4.406;2022-12-07T00:03:42;16.30;66.10
25732;DHT22;13585;50.864;4.406;2022-12-07T00:06:10;16.30;66.00
25732;DHT22;13585;50.864;4.406;2022-12-07T00:08:36;16.30;66.00
25732;DHT22;13585;50.864;4.406;2022-12-07T00:11:03;16.20;65.90
25732;DHT22;13585;50.864;4.406;2022-12-07T00:13:30;16.30;66.00
25732;DHT22;13585;50.864;4.406;2022-12-07T00:15:59;16.30;65.90
25732;DHT22;13585;50.864;4.406;2022-12-07T00:18:25;16.20;65.80
25732;DHT22;13585;50.864;4.406;2022-12-07T00:20:50;16.30;65.80
25732;DHT22;13585;50.864;4.406;2022-12-07T00:23:16;16.20;65.80
25732;DHT22;13585;50.864;4.406;2022-12-07T00:25:41;16.20;65.70
25732;DHT22;13585;50.864;4.406;2022-12-07T00:28:07;16.20;65.70
25732;DHT22;13585;50.864;4.406;2022-12-07T00:30:34;16.20;65.70
25732;DHT22;13585;50.864;4.406;2022-12-07T00:33:01;16.20;65.70
25732;DHT22;13585;50.864;4.406;2022-12-07T00:35:26;16.20;65.60
25732;DHT22;13585;50.864;4.406;2022-12-07T00:37:52;16.20;65.60
25732;DHT22;13585;50.864;4.406;2022-12-07T00:40:17;16.20;65.60
25732;DHT22;13585;50.864;4.406;2022-12-07T00:42:43;16.20;65.50
25732;DHT22;13585;50.864;4.406;2022-12-07T00:45:09;16.20;65.50
25732;DHT22;13585;50.864;4.406;2022-12-07T00:47:34;16.20;65.50
25732;DHT22;13585;50.864;4.406;2022-12-07T00:50:00;16.20;65.40
25732;DHT22;13585;50.864;4.406;2022-12-07T00:52:25;16.20;65.40
25732;DHT22;13585;50.864;4.406;2022-12-07T00:54:51;16.20;65.40
25732;DHT22;13585;50.864;4.406;2022-12-07T00:57:16;16.20;65.30
25732;DHT22;13585;50.864;4.406;2022-12-07T00:59:42;16.20;65.30
25732;DHT22;13585;50.864;4.406;2022-12-07T01:02:08;16.20;65.30
25732;DHT22;13585;50.864;4.406;2022-12-07T01:04:34;16.20;65.30
25732;DHT22;13585;50.864;4.406;2022-12-07T01:06:59;16.20;65.20
25732;DHT22;13585;50.864;4.406;2022-12-07T01:09:25;16.20;65.20
25732;DHT22;13585;50.864;4.406;2022-12-07T01:11:51;16.20;65.20
25732;DHT22;13585;50.864;4.406;2022-12-07T01:14:16;16.20;65.10
25732;DHT22;13585;50.864;4.406;2022-12-07T01:16:42;16.20;65.10
25732;DHT22;13585;50.864;4.406;2022-12-07T01:19:07;16.20;65.00
25732;DHT22;13585;50.864;4.406;2022-12-07T01:21:34;16.20;65.00
25732;DHT22;13585;50.864;4.406;2022-12-07T01:24:04;16.20;65.00
25732;DHT22;13585;50.864;4.406;2022-12-07T01:26:30;16.20;65.70
25732;DHT22;13585;50.864;4.406;2022-12-07T01:28:56;16.20;65.00
25732;DHT22;13585;50.864;4.406;2022-12-07T01:31:25;16.20;64.90
25732;DHT22;13585;50.864;4.406;2022-12-07T01:33:53;16.20;64.90
25732;DHT22;13585;50.864;4.406;2022-12-07T01:36:21;16.20;64.80
25732;DHT22;13585;50.864;4.406;2022-12-07T01:38:48;16.20;64.80
25732;DHT22;13585;50.864;4.406;2022-12-07T01:41:17;16.20;64.80
25732;DHT22;13585;50.864;4.406;2022-12-07T01:51:48;16.10;64.70
25732;DHT22;13585;50.864;4.406;2022-12-07T01:54:15;16.20;64.70
25732;DHT22;13585;50.864;4.406;2022-12-07T01:56:50;16.20;64.50
25732;DHT22;13585;50.864;4.406;2022-12-07T01:59:18;16.10;64.50
25732;DHT22;13585;50.864;4.406;2022-12-07T02:01:45;16.10;64.50
25732;DHT22;13585;50.864;4.406;2022-12-07T02:04:11;16.10;64.50
25732;DHT22;13585;50.864;4.406;2022-12-07T02:06:39;16.10;64.60
25732;DHT22;13585;50.864;4.406;2022-12-07T02:09:07;16.10;64.50
25732;DHT22;13585;50.864;4.406;2022-12-07T02:11:32;16.10;64.40
25732;DHT22;13585;50.864;4.406;2022-12-07T02:13:58;16.10;64.40
25732;DHT22;13585;50.864;4.406;2022-12-07T02:30:47;16.10;64.20
25732;DHT22;13585;50.864;4.406;2022-12-07T02:33:19;16.10;64.10
25732;DHT22;13585;50.864;4.406;2022-12-07T02:36:16;16.10;64.20
25732;DHT22;13585;50.864;4.406;2022-12-07T02:38:55;16.10;64.20
25732;DHT22;13585;50.864;4.406;2022-12-07T02:41:33;16.10;64.20
25732;DHT22;13585;50.864;4.406;2022-12-07T02:44:07;16.10;64.10
25732;DHT22;13585;50.864;4.406;2022-12-07T02:46:38;16.10;64.10
25732;DHT22;13585;50.864;4.406;2022-12-07T02:49:06;16.10;64.00
25732;DHT22;13585;50.864;4.406;2022-12-07T02:51:33;16.10;64.00
25732;DHT22;13585;50.864;4.406;2022-12-07T02:53:59;16.10;64.00
25732;DHT22;13585;50.864;4.406;2022-12-07T03:10:38;16.10;63.90
25732;DHT22;13585;50.864;4.406;2022-12-07T03:18:31;16.10;63.80
25732;DHT22;13585;50.864;4.406;2022-12-07T03:21:02;16.10;63.70
25732;DHT22;13585;50.864;4.406;2022-12-07T03:23:29;16.00;63.70
25732;DHT22;13585;50.864;4.406;2022-12-07T03:26:00;16.10;63.70
25732;DHT22;13585;50.864;4.406;2022-12-07T03:28:31;16.10;63.60
25732;DHT22;13585;50.864;4.406;2022-12-07T03:31:04;16.10;63.60
25732;DHT22;13585;50.864;4.406;2022-12-07T03:33:40;16.00;63.60
25732;DHT22;13585;50.864;4.406;2022-12-07T03:36:31;16.00;63.60
25732;DHT22;13585;50.864;4.406;2022-12-07T03:41:54;16.00;63.60
25732;DHT22;13585;50.864;4.406;2022-12-07T03:44:21;16.00;63.40
25732;DHT22;13585;50.864;4.406;2022-12-07T03:47:01;16.00;63.50
25732;DHT22;13585;50.864;4.406;2022-12-07T03:49:44;16.00;63.40
25732;DHT22;13585;50.864;4.406;2022-12-07T03:55:14;16.00;63.40
25732;DHT22;13585;50.864;4.406;2022-12-07T03:57:42;16.00;63.40
25732;DHT22;13585;50.864;4.406;2022-12-07T04:00:10;16.00;63.30
25732;DHT22;13585;50.864;4.406;2022-12-07T04:02:36;16.00;63.30
25732;DHT22;13585;50.864;4.406;2022-12-07T04:05:02;16.00;63.30
25732;DHT22;13585;50.864;4.406;2022-12-07T04:07:28;16.00;63.30
25732;DHT22;13585;50.864;4.406;2022-12-07T04:09:53;16.00;63.30
25732;DHT22;13585;50.864;4.406;2022-12-07T04:12:21;16.00;63.20
25732;DHT22;13585;50.864;4.406;2022-12-07T04:14:46;16.00;63.20
25732;DHT22;13585;50.864;4.406;2022-12-07T04:17:12;16.00;63.20
25732;DHT22;13585;50.864;4.406;2022-12-07T04:19:38;16.00;63.20
25732;DHT22;13585;50.864;4.406;2022-12-07T04:22:04;16.00;63.30
25732;DHT22;13585;50.864;4.406;2022-12-07T04:24:30;16.00;63.30
25732;DHT22;13585;50.864;4.406;2022-12-07T04:26:55;16.00;63.20
25732;DHT22;13585;50.864;4.406;2022-12-07T04:29:21;16.00;63.10
25732;DHT22;13585;50.864;4.406;2022-12-07T04:31:48;16.00;63.10
25732;DHT22;13585;50.864;4.406;2022-12-07T04:34:14;16.00;63.00
25732;DHT22;13585;50.864;4.406;2022-12-07T04:36:40;16.00;62.90
25732;DHT22;13585;50.864;4.406;2022-12-07T04:39:08;16.00;62.90
25732;DHT22;13585;50.864;4.406;2022-12-07T04:41:34;16.00;62.90
25732;DHT22;13585;50.864;4.406;2022-12-07T04:44:02;16.10;62.90
25732;DHT22;13585;50.864;4.406;2022-12-07T04:46:29;16.00;62.90
25732;DHT22;13585;50.864;4.406;2022-12-07T04:48:57;16.00;62.80
25732;DHT22;13585;50.864;4.406;2022-12-07T04:51:26;16.10;62.80
25732;DHT22;13585;50.864;4.406;2022-12-07T04:53:52;16.00;62.80
25732;DHT22;13585;50.864;4.406;2022-12-07T04:56:18;16.10;62.80
25732;DHT22;13585;50.864;4.406;2022-12-07T04:58:45;16.10;62.80
25732;DHT22;13585;50.864;4.406;2022-12-07T05:01:10;16.10;62.80
25732;DHT22;13585;50.864;4.406;2022-12-07T05:03:37;16.10;62.80
25732;DHT22;13585;50.864;4.406;2022-12-07T05:06:03;16.10;62.90
25732;DHT22;13585;50.864;4.406;2022-12-07T05:08:29;16.10;62.90
25732;DHT22;13585;50.864;4.406;2022-12-07T05:10:54;16.10;62.80
25732;DHT22;13585;50.864;4.406;2022-12-07T05:13:20;16.10;62.90
25732;DHT22;13585;50.864;4.406;2022-12-07T05:15:49;16.10;62.90
25732;DHT22;13585;50.864;4.406;2022-12-07T05:18:14;16.10;62.90
25732;DHT22;13585;50.864;4.406;2022-12-07T05:20:41;16.20;63.00
25732;DHT22;13585;50.864;4.406;2022-12-07T05:23:07;16.10;62.90
25732;DHT22;13585;50.864;4.406;2022-12-07T05:25:33;16.10;63.00
25732;DHT22;13585;50.864;4.406;2022-12-07T05:27:59;16.10;63.00
25732;DHT22;13585;50.864;4.406;2022-12-07T05:30:25;16.20;63.10
25732;DHT22;13585;50.864;4.406;2022-12-07T05:32:51;16.10;63.00
25732;DHT22;13585;50.864;4.406;2022-12-07T05:35:17;16.20;63.20
25732;DHT22;13585;50.864;4.406;2022-12-07T05:37:43;16.20;63.20
25732;DHT22;13585;50.864;4.406;2022-12-07T05:40:09;16.20;63.20
25732;DHT22;13585;50.864;4.406;2022-12-07T05:42:35;16.20;63.30
25732;DHT22;13585;50.864;4.406;2022-12-07T05:45:01;16.20;63.30
25732;DHT22;13585;50.864;4.406;2022-12-07T05:47:26;16.20;63.40
25732;DHT22;13585;50.864;4.406;2022-12-07T05:49:52;16.20;63.40
25732;DHT22;13585;50.864;4.406;2022-12-07T05:52:18;16.20;63.40
25732;DHT22;13585;50.864;4.406;2022-12-07T05:54:43;16.20;63.40
25732;DHT22;13585;50.864;4.406;2022-12-07T05:57:10;16.20;63.40
25732;DHT22;13585;50.864;4.406;2022-12-07T05:59:35;16.20;63.50
25732;DHT22;13585;50.864;4.406;2022-12-07T06:02:04;16.20;63.50
25732;DHT22;13585;50.864;4.406;2022-12-07T06:04:32;16.20;63.60
25732;DHT22;13585;50.864;4.406;2022-12-07T06:06:59;16.30;63.60
25732;DHT22;13585;50.864;4.406;2022-12-07T06:09:26;16.30;63.60
25732;DHT22;13585;50.864;4.406;2022-12-07T06:11:52;16.30;63.60
25732;DHT22;13585;50.864;4.406;2022-12-07T06:14:36;16.30;63.70
25732;DHT22;13585;50.864;4.406;2022-12-07T06:17:02;16.30;63.70
25732;DHT22;13585;50.864;4.406;2022-12-07T06:19:28;16.30;63.70
25732;DHT22;13585;50.864;4.406;2022-12-07T06:21:53;16.30;63.70
25732;DHT22;13585;50.864;4.406;2022-12-07T06:24:19;16.30;63.80
25732;DHT22;13585;50.864;4.406;2022-12-07T06:26:45;16.30;63.80
25732;DHT22;13585;50.864;4.406;2022-12-07T06:29:12;16.30;63.90
25732;DHT22;13585;50.864;4.406;2022-12-07T06:31:38;16.30;63.90
25732;DHT22;13585;50.864;4.406;2022-12-07T06:34:06;16.30;63.90
25732;DHT22;13585;50.864;4.406;2022-12-07T06:36:32;16.30;63.90
25732;DHT22;13585;50.864;4.406;2022-12-07T06:38:58;16.30;63.90
25732;DHT22;13585;50.864;4.406;2022-12-07T06:41:24;16.30;64.00
25732;DHT22;13585;50.864;4.406;2022-12-07T06:43:50;16.40;64.10
25732;DHT22;13585;50.864;4.406;2022-12-07T06:46:16;16.30;64.00
25732;DHT22;13585;50.864;4.406;2022-12-07T06:48:43;16.40;64.10
25732;DHT22;13585;50.864;4.406;2022-12-07T06:51:09;16.40;64.20
25732;DHT22;13585;50.864;4.406;2022-12-07T06:53:35;16.40;64.30
25732;DHT22;13585;50.864;4.406;2022-12-07T06:56:01;16.40;64.30
25732;DHT22;13585;50.864;4.406;2022-12-07T06:58:27;16.30;64.40
25732;DHT22;13585;50.864;4.406;2022-12-07T07:00:53;16.40;64.50
25732;DHT22;13585;50.864;4.406;2022-12-07T07:03:19;16.40;64.50
25732;DHT22;13585;50.864;4.406;2022-12-07T07:05:45;16.40;64.50
25732;DHT22;13585;50.864;4.406;2022-12-07T07:08:11;16.40;64.60
25732;DHT22;13585;50.864;4.406;2022-12-07T07:10:37;16.40;64.60
25732;DHT22;13585;50.864;4.406;2022-12-07T07:13:04;16.40;64.60
25732;DHT22;13585;50.864;4.406;2022-12-07T07:15:31;16.40;64.60
25732;DHT22;13585;50.864;4.406;2022-12-07T07:17:56;16.40;65.40
25732;DHT22;13585;50.864;4.406;2022-12-07T07:20:22;16.40;64.70
25732;DHT22;13585;50.864;4.406;2022-12-07T07:22:48;16.40;64.70
25732;DHT22;13585;50.864;4.406;2022-12-07T07:25:15;16.40;64.70
25732;DHT22;13585;50.864;4.406;2022-12-07T07:27:40;16.40;64.60
25732;DHT22;13585;50.864;4.406;2022-12-07T07:30:07;16.40;64.60
25732;DHT22;13585;50.864;4.406;2022-12-07T07:32:33;16.40;64.60
25732;DHT22;13585;50.864;4.406;2022-12-07T07:35:00;16.40;64.60
25732;DHT22;13585;50.864;4.406;2022-12-07T07:37:25;16.40;64.60
25732;DHT22;13585;50.864;4.406;2022-12-07T07:39:51;16.40;64.50
25732;DHT22;13585;50.864;4.406;2022-12-07T07:42:17;16.40;64.50
25732;DHT22;13585;50.864;4.406;2022-12-07T07:44:42;16.40;64.50
25732;DHT22;13585;50.864;4.406;2022-12-07T07:47:08;16.40;64.50
25732;DHT22;13585;50.864;4.406;2022-12-07T07:49:33;16.40;64.40
25732;DHT22;13585;50.864;4.406;2022-12-07T07:51:59;16.40;64.40
25732;DHT22;13585;50.864;4.406;2022-12-07T07:54:25;16.40;64.40
25732;DHT22;13585;50.864;4.406;2022-12-07T07:56:50;16.40;64.30
25732;DHT22;13585;50.864;4.406;2022-12-07T07:59:17;16.30;64.30
25732;DHT22;13585;50.864;4.406;2022-12-07T08:01:42;16.30;64.20
25732;DHT22;13585;50.864;4.406;2022-12-07T08:04:08;16.40;64.30
25732;DHT22;13585;50.864;4.406;2022-12-07T08:06:34;16.30;64.20
25732;DHT22;13585;50.864;4.406;2022-12-07T08:08:59;16.30;64.20
25732;DHT22;13585;50.864;4.406;2022-12-07T08:11:25;16.30;64.20
25732;DHT22;13585;50.864;4.406;2022-12-07T08:13:50;16.40;64.20
25732;DHT22;13585;50.864;4.406;2022-12-07T08:16:16;16.30;64.10
25732;DHT22;13585;50.864;4.406;2022-12-07T08:18:43;16.30;64.10
25732;DHT22;13585;50.864;4.406;2022-12-07T08:21:14;16.30;64.10
25732;DHT22;13585;50.864;4.406;2022-12-07T08:23:41;16.30;64.10
25732;DHT22;13585;50.864;4.406;2022-12-07T08:26:09;16.30;64.00
25732;DHT22;13585;50.864;4.406;2022-12-07T08:28:35;16.30;64.00
25732;DHT22;13585;50.864;4.406;2022-12-07T08:31:12;16.30;64.00
25732;DHT22;13585;50.864;4.406;2022-12-07T08:33:39;16.30;64.00
25732;DHT22;13585;50.864;4.406;2022-12-07T08:36:10;16.30;63.90
25732;DHT22;13585;50.864;4.406;2022-12-07T08:38:37;16.30;63.90
25732;DHT22;13585;50.864;4.406;2022-12-07T08:41:04;16.30;63.80
25732;DHT22;13585;50.864;4.406;2022-12-07T08:43:30;16.30;63.80
25732;DHT22;13585;50.864;4.406;2022-12-07T08:48:35;16.30;63.70
25732;DHT22;13585;50.864;4.406;2022-12-07T08:51:01;16.30;63.60
25732;DHT22;13585;50.864;4.406;2022-12-07T08:53:28;16.30;63.60
25732;DHT22;13585;50.864;4.406;2022-12-07T08:55:55;16.30;63.60
25732;DHT22;13585;50.864;4.406;2022-12-07T08:58:21;16.30;63.60
25732;DHT22;13585;50.864;4.406;2022-12-07T09:00:47;16.30;63.50
25732;DHT22;13585;50.864;4.406;2022-12-07T09:03:13;16.30;63.50
25732;DHT22;13585;50.864;4.406;2022-12-07T09:05:38;16.20;63.40
25732;DHT22;13585;50.864;4.406;2022-12-07T09:08:04;16.20;63.40
25732;DHT22;13585;50.864;4.406;2022-12-07T09:10:30;16.30;63.30
25732;DHT22;13585;50.864;4.406;2022-12-07T09:12:56;16.30;63.40
25732;DHT22;13585;50.864;4.406;2022-12-07T09:15:29;16.30;63.30
25732;DHT22;13585;50.864;4.406;2022-12-07T09:17:54;16.30;63.20
25732;DHT22;13585;50.864;4.406;2022-12-07T09:20:20;16.20;63.20
25732;DHT22;13585;50.864;4.406;2022-12-07T09:22:46;16.30;63.20
25732;DHT22;13585;50.864;4.406;2022-12-07T09:25:12;16.20;63.10
25732;DHT22;13585;50.864;4.406;2022-12-07T09:27:37;16.30;63.10
25732;DHT22;13585;50.864;4.406;2022-12-07T09:30:05;16.20;63.10
25732;DHT22;13585;50.864;4.406;2022-12-07T09:32:30;16.20;63.00
25732;DHT22;13585;50.864;4.406;2022-12-07T09:34:56;16.20;63.00
25732;DHT22;13585;50.864;4.406;2022-12-07T09:37:22;16.20;62.90
25732;DHT22;13585;50.864;4.406;2022-12-07T09:39:47;16.20;62.90
25732;DHT22;13585;50.864;4.406;2022-12-07T09:44:55;16.20;62.90
25732;DHT22;13585;50.864;4.406;2022-12-07T09:47:20;16.20;62.80
25732;DHT22;13585;50.864;4.406;2022-12-07T09:49:46;16.20;62.80
25732;DHT22;13585;50.864;4.406;2022-12-07T09:54:41;16.20;62.70
25732;DHT22;13585;50.864;4.406;2022-12-07T09:57:11;16.20;62.70
25732;DHT22;13585;50.864;4.406;2022-12-07T09:59:38;16.20;62.60
25732;DHT22;13585;50.864;4.406;2022-12-07T10:02:41;16.20;62.60
25732;DHT22;13585;50.864;4.406;2022-12-07T10:05:13;16.10;62.50
25732;DHT22;13585;50.864;4.406;2022-12-07T10:07:39;16.20;62.50
25732;DHT22;13585;50.864;4.406;2022-12-07T10:10:13;16.20;62.50
25732;DHT22;13585;50.864;4.406;2022-12-07T10:12:58;16.20;62.40
25732;DHT22;13585;50.864;4.406;2022-12-07T10:15:43;16.20;62.50
25732;DHT22;13585;50.864;4.406;2022-12-07T10:18:24;16.20;62.50
25732;DHT22;13585;50.864;4.406;2022-12-07T10:23:33;16.20;62.40
25732;DHT22;13585;50.864;4.406;2022-12-07T10:26:20;16.20;62.40
25732;DHT22;13585;50.864;4.406;2022-12-07T10:28:47;16.20;62.50
25732;DHT22;13585;50.864;4.406;2022-12-07T10:31:19;16.20;62.40
25732;DHT22;13585;50.864;4.406;2022-12-07T10:33:58;16.20;62.30
25732;DHT22;13585;50.864;4.406;2022-12-07T10:42:02;16.20;62.20
25732;DHT22;13585;50.864;4.406;2022-12-07T10:44:30;16.10;62.20
25732;DHT22;13585;50.864;4.406;2022-12-07T10:55:20;16.10;62.10
25732;DHT22;13585;50.864;4.406;2022-12-07T10:58:01;16.10;62.10
25732;DHT22;13585;50.864;4.406;2022-12-07T11:00:37;16.10;62.00
25732;DHT22;13585;50.864;4.406;2022-12-07T11:03:29;16.10;62.00
25732;DHT22;13585;50.864;4.406;2022-12-07T11:09:08;16.10;61.90
25732;DHT22;13585;50.864;4.406;2022-12-07T11:23:06;16.10;61.80
25732;DHT22;13585;50.864;4.406;2022-12-07T11:28:38;16.10;61.70
25732;DHT22;13585;50.864;4.406;2022-12-07T11:31:18;16.10;61.80
25732;DHT22;13585;50.864;4.406;2022-12-07T11:33:54;16.10;61.70
25732;DHT22;13585;50.864;4.406;2022-12-07T11:36:37;16.10;61.70
25732;DHT22;13585;50.864;4.406;2022-12-07T11:41:51;16.10;61.60
25732;DHT22;13585;50.864;4.406;2022-12-07T11:44:40;16.10;61.60
25732;DHT22;13585;50.864;4.406;2022-12-07T11:47:43;16.10;61.70
25732;DHT22;13585;50.864;4.406;2022-12-07T11:52:53;16.10;61.50
25732;DHT22;13585;50.864;4.406;2022-12-07T11:55:54;16.10;61.50
25732;DHT22;13585;50.864;4.406;2022-12-07T12:06:38;16.10;61.40
25732;DHT22;13585;50.864;4.406;2022-12-07T12:09:21;16.10;61.40
25732;DHT22;13585;50.864;4.406;2022-12-07T12:22:32;16.10;61.10
25732;DHT22;13585;50.864;4.406;2022-12-07T12:24:58;16.10;61.10
25732;DHT22;13585;50.864;4.406;2022-12-07T12:27:25;16.10;61.10
25732;DHT22;13585;50.864;4.406;2022-12-07T12:29:57;16.10;61.10
25732;DHT22;13585;50.864;4.406;2022-12-07T12:37:49;16.10;61.20
25732;DHT22;13585;50.864;4.406;2022-12-07T12:42:53;16.10;61.10
25732;DHT22;13585;50.864;4.406;2022-12-07T12:45:28;16.10;61.10
25732;DHT22;13585;50.864;4.406;2022-12-07T12:48:28;16.10;61.10
25732;DHT22;13585;50.864;4.406;2022-12-07T12:54:18;16.10;61.20
25732;DHT22;13585;50.864;4.406;2022-12-07T12:59:30;16.10;61.20
25732;DHT22;13585;50.864;4.406;2022-12-07T13:15:47;16.10;62.00
25732;DHT22;13585;50.864;4.406;2022-12-07T13:29:11;16.10;62.40
25732;DHT22;13585;50.864;4.406;2022-12-07T13:31:45;16.10;62.50
25732;DHT22;13585;50.864;4.406;2022-12-07T13:34:40;16.10;62.40
25732;DHT22;13585;50.864;4.406;2022-12-07T13:37:24;16.10;62.60
25732;DHT22;13585;50.864;4.406;2022-12-07T13:39:56;16.10;62.60
25732;DHT22;13585;50.864;4.406;2022-12-07T13:42:32;16.10;62.70
25732;DHT22;13585;50.864;4.406;2022-12-07T13:45:00;16.10;62.70
25732;DHT22;13585;50.864;4.406;2022-12-07T13:47:44;16.10;62.80
25732;DHT22;13585;50.864;4.406;2022-12-07T13:50:25;16.10;62.90
25732;DHT22;13585;50.864;4.406;2022-12-07T13:52:55;16.10;62.90
25732;DHT22;13585;50.864;4.406;2022-12-07T13:55:21;16.10;62.90
25732;DHT22;13585;50.864;4.406;2022-12-07T13:57:51;16.10;62.90
25732;DHT22;13585;50.864;4.406;2022-12-07T14:00:23;16.10;63.00
25732;DHT22;13585;50.864;4.406;2022-12-07T14:05:39;16.10;63.10
25732;DHT22;13585;50.864;4.406;2022-12-07T14:13:29;16.10;63.10
25732;DHT22;13585;50.864;4.406;2022-12-07T14:35:37;16.10;63.00
25732;DHT22;13585;50.864;4.406;2022-12-07T14:38:05;16.10;63.10
25732;DHT22;13585;50.864;4.406;2022-12-07T14:40:32;16.10;63.10
25732;DHT22;13585;50.864;4.406;2022-12-07T14:43:03;16.10;63.20
25732;DHT22;13585;50.864;4.406;2022-12-07T14:45:30;16.10;63.20
25732;DHT22;13585;50.864;4.406;2022-12-07T14:47:56;16.10;63.20
25732;DHT22;13585;50.864;4.406;2022-12-07T14:50:23;16.10;63.20
25732;DHT22;13585;50.864;4.406;2022-12-07T14:52:58;16.10;63.20
25732;DHT22;13585;50.864;4.406;2022-12-07T14:55:27;16.10;63.90
25732;DHT22;13585;50.864;4.406;2022-12-07T14:57:53;16.10;63.10
25732;DHT22;13585;50.864;4.406;2022-12-07T15:00:20;16.10;63.10
25732;DHT22;13585;50.864;4.406;2022-12-07T15:02:47;16.10;63.20
25732;DHT22;13585;50.864;4.406;2022-12-07T15:05:14;16.10;63.10
25732;DHT22;13585;50.864;4.406;2022-12-07T15:07:40;16.10;63.00
25732;DHT22;13585;50.864;4.406;2022-12-07T15:10:08;16.10;63.00
25732;DHT22;13585;50.864;4.406;2022-12-07T15:12:38;16.10;63.00
25732;DHT22;13585;50.864;4.406;2022-12-07T15:15:04;16.10;63.00
25732;DHT22;13585;50.864;4.406;2022-12-07T15:17:29;16.10;63.00
25732;DHT22;13585;50.864;4.406;2022-12-07T15:19:55;16.10;63.00
25732;DHT22;13585;50.864;4.406;2022-12-07T15:22:21;16.10;62.90
25732;DHT22;13585;50.864;4.406;2022-12-07T15:24:46;16.20;63.00
25732;DHT22;13585;50.864;4.406;2022-12-07T15:27:12;16.10;62.90
25732;DHT22;13585;50.864;4.406;2022-12-07T15:29:37;16.10;62.90
25732;DHT22;13585;50.864;4.406;2022-12-07T15:32:03;16.10;62.90
25732;DHT22;13585;50.864;4.406;2022-12-07T15:34:29;16.10;62.80
25732;DHT22;13585;50.864;4.406;2022-12-07T15:36:56;16.10;62.80
25732;DHT22;13585;50.864;4.406;2022-12-07T15:39:22;16.20;62.90
25732;DHT22;13585;50.864;4.406;2022-12-07T15:41:47;16.10;62.80
25732;DHT22;13585;50.864;4.406;2022-12-07T15:44:13;16.10;62.80
25732;DHT22;13585;50.864;4.406;2022-12-07T15:46:57;16.00;62.70
25732;DHT22;13585;50.864;4.406;2022-12-07T15:49:23;16.10;62.60
25732;DHT22;13585;50.864;4.406;2022-12-07T15:51:48;16.10;62.70
25732;DHT22;13585;50.864;4.406;2022-12-07T15:54:19;16.10;62.70
25732;DHT22;13585;50.864;4.406;2022-12-07T15:56:45;16.10;62.60
25732;DHT22;13585;50.864;4.406;2022-12-07T15:59:10;16.10;62.50
25732;DHT22;13585;50.864;4.406;2022-12-07T16:01:36;16.00;62.50
25732;DHT22;13585;50.864;4.406;2022-12-07T16:04:02;16.00;62.50
25732;DHT22;13585;50.864;4.406;2022-12-07T16:06:27;16.10;62.50
25732;DHT22;13585;50.864;4.406;2022-12-07T16:08:53;16.00;62.40
25732;DHT22;13585;50.864;4.406;2022-12-07T16:11:19;16.10;62.50
25732;DHT22;13585;50.864;4.406;2022-12-07T16:13:44;16.10;62.40
25732;DHT22;13585;50.864;4.406;2022-12-07T16:16:12;16.00;62.30
25732;DHT22;13585;50.864;4.406;2022-12-07T16:18:38;16.00;62.30
25732;DHT22;13585;50.864;4.406;2022-12-07T16:21:04;16.10;62.40
25732;DHT22;13585;50.864;4.406;2022-12-07T16:23:30;16.00;62.30
25732;DHT22;13585;50.864;4.406;2022-12-07T16:26:06;16.00;62.30
25732;DHT22;13585;50.864;4.406;2022-12-07T16:28:32;16.00;62.20
25732;DHT22;13585;50.864;4.406;2022-12-07T16:31:13;16.10;63.00
25732;DHT22;13585;50.864;4.406;2022-12-07T16:33:40;16.00;62.20
25732;DHT22;13585;50.864;4.406;2022-12-07T16:36:08;16.00;62.00
25732;DHT22;13585;50.864;4.406;2022-12-07T16:38:35;16.00;62.10
25732;DHT22;13585;50.864;4.406;2022-12-07T16:41:01;16.00;62.00
25732;DHT22;13585;50.864;4.406;2022-12-07T16:43:27;16.00;62.00
25732;DHT22;13585;50.864;4.406;2022-12-07T16:45:53;16.00;62.00
25732;DHT22;13585;50.864;4.406;2022-12-07T16:48:18;16.10;62.00
25732;DHT22;13585;50.864;4.406;2022-12-07T16:50:44;16.10;62.00
25732;DHT22;13585;50.864;4.406;2022-12-07T16:53:11;16.10;61.90
25732;DHT22;13585;50.864;4.406;2022-12-07T16:55:39;16.10;61.90
25732;DHT22;13585;50.864;4.406;2022-12-07T16:58:05;16.10;62.00
25732;DHT22;13585;50.864;4.406;2022-12-07T17:00:31;16.10;61.90
25732;DHT22;13585;50.864;4.406;2022-12-07T17:02:57;16.10;62.00
25732;DHT22;13585;50.864;4.406;2022-12-07T17:05:23;16.10;62.00
25732;DHT22;13585;50.864;4.406;2022-12-07T17:07:50;16.10;62.00
25732;DHT22;13585;50.864;4.406;2022-12-07T17:10:15;16.10;61.90
25732;DHT22;13585;50.864;4.406;2022-12-07T17:12:41;16.10;62.00
25732;DHT22;13585;50.864;4.406;2022-12-07T17:15:07;16.10;62.00
25732;DHT22;13585;50.864;4.406;2022-12-07T17:17:46;16.10;62.00
25732;DHT22;13585;50.864;4.406;2022-12-07T17:20:12;16.10;62.00
25732;DHT22;13585;50.864;4.406;2022-12-07T17:22:38;16.20;62.00
25732;DHT22;13585;50.864;4.406;2022-12-07T17:25:04;16.10;62.00
25732;DHT22;13585;50.864;4.406;2022-12-07T17:27:31;16.10;62.00
25732;DHT22;13585;50.864;4.406;2022-12-07T17:29:57;16.10;62.10
25732;DHT22;13585;50.864;4.406;2022-12-07T17:32:22;16.20;62.10
25732;DHT22;13585;50.864;4.406;2022-12-07T17:34:48;16.20;62.10
25732;DHT22;13585;50.864;4.406;2022-12-07T17:37:13;16.20;62.10
25732;DHT22;13585;50.864;4.406;2022-12-07T17:39:39;16.20;62.10
25732;DHT22;13585;50.864;4.406;2022-12-07T17:42:05;16.20;62.10
25732;DHT22;13585;50.864;4.406;2022-12-07T17:44:49;16.20;62.10
25732;DHT22;13585;50.864;4.406;2022-12-07T17:47:14;16.20;62.10
25732;DHT22;13585;50.864;4.406;2022-12-07T17:49:42;16.20;62.20
25732;DHT22;13585;50.864;4.406;2022-12-07T17:52:11;16.20;62.20
25732;DHT22;13585;50.864;4.406;2022-12-07T17:54:55;16.20;62.20
25732;DHT22;13585;50.864;4.406;2022-12-07T17:57:21;16.20;62.10
25732;DHT22;13585;50.864;4.406;2022-12-07T17:59:47;16.20;62.20
25732;DHT22;13585;50.864;4.406;2022-12-07T18:02:13;16.20;62.20
25732;DHT22;13585;50.864;4.406;2022-12-07T18:04:39;16.20;62.20
25732;DHT22;13585;50.864;4.406;2022-12-07T18:07:06;16.20;62.20
25732;DHT22;13585;50.864;4.406;2022-12-07T18:09:32;16.20;62.20
25732;DHT22;13585;50.864;4.406;2022-12-07T18:11:58;16.30;62.30
25732;DHT22;13585;50.864;4.406;2022-12-07T18:14:23;16.20;62.20
25732;DHT22;13585;50.864;4.406;2022-12-07T18:16:49;16.20;62.20
25732;DHT22;13585;50.864;4.406;2022-12-07T18:19:15;16.30;63.00
25732;DHT22;13585;50.864;4.406;2022-12-07T18:21:41;16.20;62.20
25732;DHT22;13585;50.864;4.406;2022-12-07T18:24:09;16.20;62.20
25732;DHT22;13585;50.864;4.406;2022-12-07T18:26:36;16.20;62.20
25732;DHT22;13585;50.864;4.406;2022-12-07T18:29:03;16.20;62.20
25732;DHT22;13585;50.864;4.406;2022-12-07T18:31:30;16.20;62.20
25732;DHT22;13585;50.864;4.406;2022-12-07T18:34:00;16.20;62.30
25732;DHT22;13585;50.864;4.406;2022-12-07T18:36:27;16.20;62.60
25732;DHT22;13585;50.864;4.406;2022-12-07T18:38:52;16.30;62.70